createdAt,value
2017-05-19T00:00:37.036Z,0
2017-05-19T00:01:38.891Z,0
2017-05-19T00:02:40.741Z,0
2017-05-19T00:03:42.587Z,0
2017-05-19T00:04:44.432Z,0
2017-05-19T00:05:46.272Z,0
2017-05-19T00:06:48.141Z,0
2017-05-19T00:07:49.964Z,0
2017-05-19T00:08:51.791Z,0
2017-05-19T00:09:53.631Z,0
2017-05-19T00:10:55.458Z,0
2017-05-19T00:11:57.409Z,0
2017-05-19T00:12:59.223Z,0
2017-05-19T00:14:01.066Z,0
2017-05-19T00:15:02.887Z,0
2017-05-19T00:16:04.732Z,0
2017-05-19T00:17:06.960Z,0
2017-05-19T00:18:08.801Z,0
2017-05-19T00:19:10.623Z,0
2017-05-19T00:20:12.447Z,0
2017-05-19T00:21:14.290Z,0
2017-05-19T00:22:16.212Z,0
2017-05-19T00:23:18.056Z,0
2017-05-19T00:24:19.904Z,0
2017-05-19T00:25:21.753Z,0
2017-05-19T00:26:23.595Z,0
2017-05-19T00:27:25.717Z,0
2017-05-19T00:28:27.569Z,0
2017-05-19T00:29:29.420Z,0
2017-05-19T00:30:31.271Z,0
2017-05-19T00:31:33.087Z,0
2017-05-19T00:32:34.932Z,0
2017-05-19T00:33:36.782Z,0
2017-05-19T00:34:38.624Z,0
2017-05-19T00:35:40.475Z,0
2017-05-19T00:36:42.316Z,0
2017-05-19T00:37:44.436Z,0
2017-05-19T00:38:46.287Z,0
2017-05-19T00:39:48.105Z,0
2017-05-19T00:40:49.951Z,0
2017-05-19T00:41:51.792Z,0
2017-05-19T00:42:53.919Z,0
2017-05-19T00:43:55.765Z,0
2017-05-19T00:44:57.607Z,0
2017-05-19T00:45:59.458Z,0
2017-05-19T00:47:01.299Z,0
2017-05-19T00:48:03.220Z,0
2017-05-19T00:49:05.039Z,0
2017-05-19T00:50:06.896Z,0
2017-05-19T00:51:08.741Z,0
2017-05-19T00:52:10.585Z,0
2017-05-19T00:53:12.634Z,0
2017-05-19T00:54:14.485Z,0
2017-05-19T00:55:16.329Z,0
2017-05-19T00:56:18.152Z,0
2017-05-19T00:57:20.001Z,0
2017-05-19T00:58:21.844Z,0
2017-05-19T00:59:23.669Z,0
2017-05-19T01:00:25.519Z,0
2017-05-19T01:01:27.336Z,0
2017-05-19T01:02:29.179Z,0
2017-05-19T01:03:31.106Z,0
2017-05-19T01:04:32.923Z,0
2017-05-19T01:05:34.766Z,0
2017-05-19T01:06:36.612Z,0
2017-05-19T01:07:38.458Z,0
2017-05-19T01:08:40.527Z,0
2017-05-19T01:09:42.371Z,0
2017-05-19T01:10:44.221Z,0
2017-05-19T01:11:46.062Z,0
2017-05-19T01:12:47.882Z,0
2017-05-19T01:13:49.802Z,0
2017-05-19T01:14:51.622Z,0
2017-05-19T01:15:53.469Z,0
2017-05-19T01:16:55.313Z,0
2017-05-19T01:17:57.158Z,0
2017-05-19T01:18:59.202Z,0
2017-05-19T01:20:01.055Z,0
2017-05-19T01:21:02.900Z,0
2017-05-19T01:22:04.745Z,0
2017-05-19T01:23:06.592Z,0
2017-05-19T01:24:08.441Z,0
2017-05-19T01:25:10.286Z,0
2017-05-19T01:26:12.134Z,0
2017-05-19T01:27:13.975Z,0
2017-05-19T01:28:15.822Z,0
2017-05-19T01:29:17.964Z,0
2017-05-19T01:30:19.808Z,0
2017-05-19T01:31:21.653Z,0
2017-05-19T01:32:23.494Z,0
2017-05-19T01:33:25.320Z,0
2017-05-19T01:34:27.183Z,0
2017-05-19T01:35:29.004Z,0
2017-05-19T01:36:30.849Z,0
2017-05-19T01:37:32.699Z,0
2017-05-19T01:38:34.538Z,0
2017-05-19T01:39:36.483Z,0
2017-05-19T01:40:38.302Z,0
2017-05-19T01:41:40.152Z,0
2017-05-19T01:42:41.990Z,0
2017-05-19T01:43:43.817Z,0
2017-05-19T01:44:45.860Z,0
2017-05-19T01:45:47.678Z,0
2017-05-19T01:46:49.498Z,0
2017-05-19T01:47:51.347Z,0
2017-05-19T01:48:53.163Z,0
2017-05-19T01:49:54.985Z,0
2017-05-19T01:50:56.826Z,0
2017-05-19T01:51:58.651Z,0
2017-05-19T01:53:00.487Z,0
2017-05-19T01:54:02.306Z,0
2017-05-19T01:55:04.560Z,0
2017-05-19T01:56:06.407Z,0
2017-05-19T01:57:08.222Z,0
2017-05-19T01:58:10.041Z,0
2017-05-19T01:59:11.861Z,0
2017-05-19T02:00:13.711Z,0
2017-05-19T02:01:15.554Z,0
2017-05-19T02:02:17.377Z,0
2017-05-19T02:03:19.224Z,0
2017-05-19T02:04:21.037Z,0
2017-05-19T02:05:23.160Z,0
2017-05-19T02:06:24.999Z,0
2017-05-19T02:07:26.815Z,0
2017-05-19T02:08:28.669Z,0
2017-05-19T02:09:30.508Z,0
2017-05-19T02:10:32.357Z,0
2017-05-19T02:11:34.202Z,0
2017-05-19T02:12:36.048Z,0
2017-05-19T02:13:37.866Z,0
2017-05-19T02:14:39.678Z,0
2017-05-19T02:15:41.899Z,0
2017-05-19T02:16:43.722Z,0
2017-05-19T02:17:45.557Z,0
2017-05-19T02:18:47.380Z,0
2017-05-19T02:19:49.201Z,0
2017-05-19T02:20:51.118Z,0
2017-05-19T02:21:52.964Z,0
2017-05-19T02:22:54.812Z,0
2017-05-19T02:23:56.661Z,0
2017-05-19T02:24:58.507Z,0
2017-05-19T02:26:00.624Z,0
2017-05-19T02:27:02.441Z,0
2017-05-19T02:28:04.286Z,0
2017-05-19T02:29:06.132Z,0
2017-05-19T02:30:07.972Z,0
2017-05-19T02:31:09.917Z,0
2017-05-19T02:32:11.736Z,0
2017-05-19T02:33:13.557Z,0
2017-05-19T02:34:15.397Z,0
2017-05-19T02:35:17.245Z,0
2017-05-19T02:36:19.392Z,0
2017-05-19T02:37:21.244Z,0
2017-05-19T02:38:23.091Z,0
2017-05-19T02:39:24.946Z,0
2017-05-19T02:40:26.795Z,0
2017-05-19T02:41:28.839Z,0
2017-05-19T02:42:30.692Z,0
2017-05-19T02:43:32.514Z,0
2017-05-19T02:44:34.356Z,0
2017-05-19T02:45:36.179Z,0
2017-05-19T02:46:38.130Z,0
2017-05-19T02:47:39.945Z,0
2017-05-19T02:48:41.768Z,0
2017-05-19T02:49:43.588Z,0
2017-05-19T02:50:45.444Z,0
2017-05-19T02:51:47.689Z,5
2017-05-19T02:52:49.512Z,5
2017-05-19T02:53:51.366Z,5
2017-05-19T02:54:53.213Z,5
2017-05-19T02:55:55.052Z,5
2017-05-19T02:56:57.003Z,5
2017-05-19T02:57:58.850Z,5
2017-05-19T02:59:00.699Z,10
2017-05-19T03:00:02.553Z,10
2017-05-19T03:01:04.393Z,10
2017-05-19T03:02:06.642Z,10
2017-05-19T03:03:08.468Z,15
2017-05-19T03:04:10.317Z,15
2017-05-19T03:05:12.171Z,15
2017-05-19T03:06:14.016Z,15
2017-05-19T03:07:15.876Z,20
2017-05-19T03:08:17.679Z,20
2017-05-19T03:09:19.503Z,20
2017-05-19T03:10:21.356Z,25
2017-05-19T03:11:23.196Z,25
2017-05-19T03:12:25.421Z,25
2017-05-19T03:13:27.269Z,30
2017-05-19T03:14:29.122Z,30
2017-05-19T03:15:30.969Z,35
2017-05-19T03:16:32.818Z,40
2017-05-19T03:17:34.668Z,45
2017-05-19T03:18:36.521Z,50
2017-05-19T03:19:38.360Z,60
2017-05-19T03:20:40.190Z,60
2017-05-19T03:21:42.038Z,65
2017-05-19T03:22:44.187Z,70
2017-05-19T03:23:46.035Z,75
2017-05-19T03:24:47.865Z,80
2017-05-19T03:25:49.711Z,85
2017-05-19T03:26:51.555Z,90
2017-05-19T03:27:53.433Z,90
2017-05-19T03:28:55.260Z,100
2017-05-19T03:29:57.108Z,100
2017-05-19T03:30:58.966Z,110
2017-05-19T03:32:00.813Z,110
2017-05-19T03:33:02.865Z,115
2017-05-19T03:34:04.694Z,120
2017-05-19T03:35:06.547Z,120
2017-05-19T03:36:08.397Z,125
2017-05-19T03:37:10.230Z,135
2017-05-19T03:38:12.180Z,135
2017-05-19T03:39:14.029Z,140
2017-05-19T03:40:15.859Z,145
2017-05-19T03:41:17.686Z,150
2017-05-19T03:42:19.522Z,155
2017-05-19T03:43:21.666Z,160
2017-05-19T03:44:23.500Z,165
2017-05-19T03:45:25.350Z,170
2017-05-19T03:46:27.197Z,175
2017-05-19T03:47:29.028Z,180
2017-05-19T03:48:30.975Z,185
2017-05-19T03:49:32.809Z,190
2017-05-19T03:50:34.660Z,190
2017-05-19T03:51:36.493Z,195
2017-05-19T03:52:38.343Z,200
2017-05-19T03:53:40.401Z,205
2017-05-19T03:54:42.226Z,210
2017-05-19T03:55:44.046Z,210
2017-05-19T03:56:45.881Z,215
2017-05-19T03:57:47.704Z,220
2017-05-19T03:58:49.559Z,225
2017-05-19T03:59:51.387Z,235
2017-05-19T04:00:53.219Z,250
2017-05-19T04:01:55.074Z,260
2017-05-19T04:02:56.931Z,265
2017-05-19T04:03:59.152Z,270
2017-05-19T04:05:00.977Z,275
2017-05-19T04:06:02.810Z,285
2017-05-19T04:07:04.639Z,290
2017-05-19T04:08:06.493Z,290
2017-05-19T04:09:08.349Z,295
2017-05-19T04:10:10.178Z,305
2017-05-19T04:11:12.031Z,320
2017-05-19T04:12:13.885Z,330
2017-05-19T04:13:15.741Z,345
2017-05-19T04:14:17.703Z,355
2017-05-19T04:15:19.555Z,365
2017-05-19T04:16:21.429Z,385
2017-05-19T04:17:23.284Z,385
2017-05-19T04:18:25.124Z,390
2017-05-19T04:19:27.382Z,405
2017-05-19T04:20:29.242Z,410
2017-05-19T04:21:31.095Z,390
2017-05-19T04:22:32.929Z,380
2017-05-19T04:23:34.789Z,395
2017-05-19T04:24:36.641Z,425
2017-05-19T04:25:38.500Z,430
2017-05-19T04:26:40.334Z,440
2017-05-19T04:27:42.188Z,450
2017-05-19T04:28:44.026Z,475
2017-05-19T04:29:45.987Z,490
2017-05-19T04:30:47.836Z,495
2017-05-19T04:31:49.699Z,495
2017-05-19T04:32:51.558Z,490
2017-05-19T04:33:53.414Z,485
2017-05-19T04:34:55.296Z,490
2017-05-19T04:35:57.125Z,495
2017-05-19T04:36:58.957Z,505
2017-05-19T04:38:00.791Z,520
2017-05-19T04:39:02.629Z,515
2017-05-19T04:40:04.586Z,525
2017-05-19T04:41:06.441Z,545
2017-05-19T04:42:08.277Z,570
2017-05-19T04:43:10.135Z,575
2017-05-19T04:44:11.967Z,585
2017-05-19T04:45:13.829Z,600
2017-05-19T04:46:15.688Z,590
2017-05-19T04:47:17.545Z,580
2017-05-19T04:48:19.406Z,585
2017-05-19T04:49:21.268Z,605
2017-05-19T04:50:23.151Z,630
2017-05-19T04:51:24.984Z,640
2017-05-19T04:52:26.847Z,650
2017-05-19T04:53:28.682Z,675
2017-05-19T04:54:30.547Z,705
2017-05-19T04:55:32.508Z,685
2017-05-19T04:56:34.344Z,500
2017-05-19T04:57:36.200Z,325
2017-05-19T04:58:38.033Z,285
2017-05-19T04:59:39.894Z,280
2017-05-19T05:00:41.955Z,280
2017-05-19T05:01:43.815Z,275
2017-05-19T05:02:45.667Z,275
2017-05-19T05:03:47.529Z,275
2017-05-19T05:04:49.387Z,275
2017-05-19T05:05:51.321Z,270
2017-05-19T05:06:53.157Z,270
2017-05-19T05:07:54.992Z,275
2017-05-19T05:08:56.849Z,275
2017-05-19T05:09:58.702Z,275
2017-05-19T05:11:00.587Z,275
2017-05-19T05:12:02.444Z,275
2017-05-19T05:13:04.277Z,275
2017-05-19T05:14:06.125Z,270
2017-05-19T05:15:07.975Z,270
2017-05-19T05:16:10.027Z,270
2017-05-19T05:17:11.867Z,270
2017-05-19T05:18:13.725Z,270
2017-05-19T05:19:15.584Z,270
2017-05-19T05:20:17.436Z,270
2017-05-19T05:21:19.369Z,270
2017-05-19T05:22:21.225Z,265
2017-05-19T05:23:23.090Z,265
2017-05-19T05:24:24.941Z,265
2017-05-19T05:25:26.798Z,265
2017-05-19T05:26:29.058Z,265
2017-05-19T05:27:30.909Z,260
2017-05-19T05:28:32.738Z,260
2017-05-19T05:29:34.597Z,260
2017-05-19T05:30:36.427Z,255
2017-05-19T05:31:38.380Z,260
2017-05-19T05:32:40.239Z,250
2017-05-19T05:33:42.088Z,250
2017-05-19T05:34:43.921Z,245
2017-05-19T05:35:45.776Z,245
2017-05-19T05:36:47.830Z,245
2017-05-19T05:37:49.664Z,240
2017-05-19T05:38:51.516Z,240
2017-05-19T05:39:53.373Z,240
2017-05-19T05:40:55.226Z,240
2017-05-19T05:41:57.079Z,240
2017-05-19T05:42:58.934Z,240
2017-05-19T05:44:00.764Z,240
2017-05-19T05:45:02.591Z,240
2017-05-19T05:46:04.424Z,240
2017-05-19T05:47:06.367Z,240
2017-05-19T05:48:08.197Z,240
2017-05-19T05:49:10.054Z,240
2017-05-19T05:50:11.909Z,240
2017-05-19T05:51:13.740Z,240
2017-05-19T05:52:15.593Z,240
2017-05-19T05:53:17.448Z,240
2017-05-19T05:54:19.306Z,240
2017-05-19T05:55:21.157Z,245
2017-05-19T05:56:22.982Z,245
2017-05-19T05:57:24.865Z,245
2017-05-19T05:58:26.714Z,245
2017-05-19T05:59:28.551Z,245
2017-05-19T06:00:30.398Z,245
2017-05-19T06:01:32.255Z,245
2017-05-19T06:02:34.130Z,245
2017-05-19T06:03:35.980Z,245
2017-05-19T06:04:37.819Z,245
2017-05-19T06:05:39.664Z,245
2017-05-19T06:06:41.520Z,245
2017-05-19T06:07:43.823Z,245
2017-05-19T06:08:45.653Z,245
2017-05-19T06:09:47.510Z,245
2017-05-19T06:10:49.361Z,245
2017-05-19T06:11:51.215Z,245
2017-05-19T06:12:53.376Z,245
2017-05-19T06:13:55.204Z,245
2017-05-19T06:14:57.060Z,245
2017-05-19T06:15:58.911Z,245
2017-05-19T06:17:00.758Z,245
2017-05-19T06:18:02.634Z,245
2017-05-19T06:19:04.471Z,245
2017-05-19T06:20:06.323Z,245
2017-05-19T06:21:08.145Z,245
2017-05-19T06:22:09.968Z,245
2017-05-19T06:23:12.198Z,250
2017-05-19T06:24:14.025Z,250
2017-05-19T06:25:15.853Z,250
2017-05-19T06:26:17.706Z,250
2017-05-19T06:27:19.567Z,250
2017-05-19T06:28:21.621Z,250
2017-05-19T06:29:23.466Z,250
2017-05-19T06:30:25.334Z,250
2017-05-19T06:31:27.189Z,250
2017-05-19T06:32:29.036Z,250
2017-05-19T06:33:30.912Z,250
2017-05-19T06:34:32.773Z,250
2017-05-19T06:35:34.627Z,250
2017-05-19T06:36:36.481Z,250
2017-05-19T06:37:38.341Z,250
2017-05-19T06:38:40.210Z,250
2017-05-19T06:39:42.068Z,255
2017-05-19T06:40:43.923Z,255
2017-05-19T06:41:45.768Z,250
2017-05-19T06:42:47.598Z,250
2017-05-19T06:43:49.554Z,250
2017-05-19T06:44:51.403Z,250
2017-05-19T06:45:53.264Z,250
2017-05-19T06:46:55.091Z,245
2017-05-19T06:47:56.943Z,245
2017-05-19T06:48:59.102Z,245
2017-05-19T06:50:00.956Z,245
2017-05-19T06:51:02.810Z,245
2017-05-19T06:52:04.658Z,250
2017-05-19T06:53:06.515Z,245
2017-05-19T06:54:08.570Z,245
2017-05-19T06:55:10.418Z,245
2017-05-19T06:56:12.245Z,245
2017-05-19T06:57:14.077Z,245
2017-05-19T06:58:15.927Z,245
2017-05-19T06:59:17.803Z,245
2017-05-19T07:00:19.660Z,245
2017-05-19T07:01:21.515Z,245
2017-05-19T07:02:23.370Z,245
2017-05-19T07:03:25.196Z,245
2017-05-19T07:04:27.069Z,245
2017-05-19T07:05:28.929Z,245
2017-05-19T07:06:30.751Z,245
2017-05-19T07:07:32.578Z,245
2017-05-19T07:08:34.411Z,245
2017-05-19T07:09:36.634Z,245
2017-05-19T07:10:38.464Z,245
2017-05-19T07:11:40.319Z,245
2017-05-19T07:12:42.171Z,245
2017-05-19T07:13:43.994Z,250
2017-05-19T07:14:45.880Z,245
2017-05-19T07:15:47.725Z,245
2017-05-19T07:16:49.579Z,245
2017-05-19T07:17:51.411Z,245
2017-05-19T07:18:53.264Z,245
2017-05-19T07:19:55.147Z,245
2017-05-19T07:20:57.000Z,245
2017-05-19T07:21:58.849Z,245
2017-05-19T07:23:00.675Z,245
2017-05-19T07:24:02.531Z,245
2017-05-19T07:25:04.682Z,245
2017-05-19T07:26:06.512Z,245
2017-05-19T07:27:08.360Z,245
2017-05-19T07:28:10.190Z,245
2017-05-19T07:29:12.051Z,245
2017-05-19T07:30:14.014Z,245
2017-05-19T07:31:15.861Z,245
2017-05-19T07:32:17.720Z,245
2017-05-19T07:33:19.574Z,245
2017-05-19T07:34:21.429Z,245
2017-05-19T07:35:23.633Z,245
2017-05-19T07:36:25.487Z,245
2017-05-19T07:37:27.317Z,245
2017-05-19T07:38:29.165Z,245
2017-05-19T07:39:30.995Z,245
2017-05-19T07:40:32.850Z,245
2017-05-19T07:41:34.678Z,245
2017-05-19T07:42:36.538Z,245
2017-05-19T07:43:38.398Z,245
2017-05-19T07:44:40.247Z,245
2017-05-19T07:45:42.295Z,245
2017-05-19T07:46:44.124Z,240
2017-05-19T07:47:45.981Z,240
2017-05-19T07:48:47.842Z,245
2017-05-19T07:49:49.688Z,245
2017-05-19T07:50:51.644Z,245
2017-05-19T07:51:53.499Z,245
2017-05-19T07:52:55.353Z,245
2017-05-19T07:53:57.205Z,245
2017-05-19T07:54:59.062Z,245
2017-05-19T07:56:01.089Z,245
2017-05-19T07:57:02.921Z,245
2017-05-19T07:58:04.778Z,245
2017-05-19T07:59:06.628Z,245
2017-05-19T08:00:08.454Z,245
2017-05-19T08:01:10.658Z,245
2017-05-19T08:02:12.494Z,245
2017-05-19T08:03:14.347Z,245
2017-05-19T08:04:16.200Z,245
2017-05-19T08:05:18.078Z,245
2017-05-19T08:06:20.335Z,250
2017-05-19T08:07:22.179Z,245
2017-05-19T08:08:24.041Z,245
2017-05-19T08:09:25.895Z,245
2017-05-19T08:10:27.756Z,245
2017-05-19T08:11:29.621Z,245
2017-05-19T08:12:31.473Z,245
2017-05-19T08:13:33.325Z,245
2017-05-19T08:14:35.179Z,245
2017-05-19T08:15:37.032Z,245
2017-05-19T08:16:39.245Z,245
2017-05-19T08:17:41.100Z,245
2017-05-19T08:18:42.972Z,245
2017-05-19T08:19:44.829Z,245
2017-05-19T08:20:46.681Z,245
2017-05-19T08:21:48.680Z,245
2017-05-19T08:22:50.499Z,245
2017-05-19T08:23:52.330Z,245
2017-05-19T08:24:54.185Z,245
2017-05-19T08:25:56.011Z,245
2017-05-19T08:26:57.889Z,245
2017-05-19T08:27:59.715Z,245
2017-05-19T08:29:01.573Z,245
2017-05-19T08:30:03.399Z,245
2017-05-19T08:31:05.252Z,245
2017-05-19T08:32:07.510Z,245
2017-05-19T08:33:09.365Z,245
2017-05-19T08:34:11.225Z,245
2017-05-19T08:35:13.072Z,245
2017-05-19T08:36:14.908Z,245
2017-05-19T08:37:16.762Z,245
2017-05-19T08:38:18.611Z,245
2017-05-19T08:39:20.441Z,245
2017-05-19T08:40:22.275Z,245
2017-05-19T08:41:24.130Z,250
2017-05-19T08:42:25.981Z,245
2017-05-19T08:43:27.840Z,245
2017-05-19T08:44:29.668Z,245
2017-05-19T08:45:31.522Z,245
2017-05-19T08:46:33.353Z,245
2017-05-19T08:47:35.205Z,245
2017-05-19T08:48:37.036Z,245
2017-05-19T08:49:38.890Z,240
2017-05-19T08:50:40.746Z,240
2017-05-19T08:51:42.600Z,240
2017-05-19T08:52:44.759Z,240
2017-05-19T08:53:46.618Z,245
2017-05-19T08:54:48.469Z,245
2017-05-19T08:55:50.299Z,240
2017-05-19T08:56:52.161Z,240
2017-05-19T08:57:54.014Z,240
2017-05-19T08:58:55.872Z,240
2017-05-19T08:59:57.732Z,240
2017-05-19T09:00:59.587Z,240
2017-05-19T09:02:01.436Z,240
2017-05-19T09:03:03.314Z,240
2017-05-19T09:04:05.166Z,240
2017-05-19T09:05:07.018Z,240
2017-05-19T09:06:08.872Z,240
2017-05-19T09:07:10.705Z,240
2017-05-19T09:08:12.554Z,240
2017-05-19T09:09:14.389Z,240
2017-05-19T09:10:16.241Z,240
2017-05-19T09:11:18.096Z,240
2017-05-19T09:12:19.954Z,240
2017-05-19T09:13:21.910Z,240
2017-05-19T09:14:23.762Z,240
2017-05-19T09:15:25.617Z,240
2017-05-19T09:16:27.476Z,240
2017-05-19T09:17:29.305Z,240
2017-05-19T09:18:31.357Z,240
2017-05-19T09:19:33.217Z,240
2017-05-19T09:20:35.044Z,240
2017-05-19T09:21:36.873Z,240
2017-05-19T09:22:38.735Z,240
2017-05-19T09:23:40.589Z,240
2017-05-19T09:24:42.440Z,240
2017-05-19T09:25:44.298Z,240
2017-05-19T09:26:46.157Z,240
2017-05-19T09:27:48.011Z,240
2017-05-19T09:28:50.066Z,240
2017-05-19T09:29:51.922Z,240
2017-05-19T09:30:53.777Z,240
2017-05-19T09:31:55.632Z,240
2017-05-19T09:32:57.485Z,240
2017-05-19T09:33:59.711Z,240
2017-05-19T09:35:01.542Z,240
2017-05-19T09:36:03.398Z,240
2017-05-19T09:37:05.228Z,240
2017-05-19T09:38:07.085Z,240
2017-05-19T09:39:08.961Z,240
2017-05-19T09:40:10.819Z,240
2017-05-19T09:41:12.671Z,240
2017-05-19T09:42:14.526Z,240
2017-05-19T09:43:16.385Z,240
2017-05-19T09:44:18.238Z,240
2017-05-19T09:45:20.065Z,240
2017-05-19T09:46:21.900Z,240
2017-05-19T09:47:23.725Z,240
2017-05-19T09:48:25.559Z,240
2017-05-19T09:49:27.611Z,240
2017-05-19T09:50:29.435Z,240
2017-05-19T09:51:31.300Z,240
2017-05-19T09:52:33.148Z,240
2017-05-19T09:53:35.006Z,240
2017-05-19T09:54:37.129Z,240
2017-05-19T09:55:38.988Z,240
2017-05-19T09:56:40.846Z,240
2017-05-19T09:57:42.693Z,240
2017-05-19T09:58:44.516Z,240
2017-05-19T09:59:46.849Z,240
2017-05-19T10:00:48.704Z,245
2017-05-19T10:01:50.559Z,240
2017-05-19T10:02:52.419Z,245
2017-05-19T10:03:54.275Z,240
2017-05-19T10:04:56.133Z,240
2017-05-19T10:05:57.960Z,245
2017-05-19T10:06:59.821Z,240
2017-05-19T10:08:01.673Z,240
2017-05-19T10:09:03.532Z,240
2017-05-19T10:10:05.583Z,235
2017-05-19T10:11:07.445Z,235
2017-05-19T10:12:09.298Z,240
2017-05-19T10:13:11.149Z,240
2017-05-19T10:14:12.985Z,240
2017-05-19T10:15:14.838Z,240
2017-05-19T10:16:16.668Z,240
2017-05-19T10:17:18.515Z,240
2017-05-19T10:18:20.376Z,240
2017-05-19T10:19:22.209Z,240
2017-05-19T10:20:24.069Z,240
2017-05-19T10:21:25.922Z,240
2017-05-19T10:22:27.775Z,240
2017-05-19T10:23:29.634Z,240
2017-05-19T10:24:31.490Z,240
2017-05-19T10:25:33.367Z,240
2017-05-19T10:26:35.222Z,240
2017-05-19T10:27:37.081Z,240
2017-05-19T10:28:38.939Z,240
2017-05-19T10:29:40.790Z,240
2017-05-19T10:30:42.744Z,240
2017-05-19T10:31:44.598Z,240
2017-05-19T10:32:46.428Z,240
2017-05-19T10:33:48.267Z,240
2017-05-19T10:34:50.116Z,240
2017-05-19T10:35:52.045Z,240
2017-05-19T10:36:53.906Z,240
2017-05-19T10:37:55.762Z,240
2017-05-19T10:38:57.606Z,240
2017-05-19T10:39:59.440Z,240
2017-05-19T10:41:01.296Z,240
2017-05-19T10:42:03.154Z,245
2017-05-19T10:43:05.011Z,245
2017-05-19T10:44:06.864Z,245
2017-05-19T10:45:08.721Z,245
2017-05-19T10:46:10.777Z,245
2017-05-19T10:47:12.605Z,245
2017-05-19T10:48:14.463Z,240
2017-05-19T10:49:16.304Z,240
2017-05-19T10:50:18.140Z,245
2017-05-19T10:51:20.016Z,245
2017-05-19T10:52:21.871Z,245
2017-05-19T10:53:23.732Z,245
2017-05-19T10:54:25.591Z,245
2017-05-19T10:55:27.416Z,245
2017-05-19T10:56:29.569Z,245
2017-05-19T10:57:31.429Z,245
2017-05-19T10:58:33.283Z,245
2017-05-19T10:59:35.115Z,245
2017-05-19T11:00:36.966Z,245
2017-05-19T11:01:38.900Z,245
2017-05-19T11:02:40.754Z,245
2017-05-19T11:03:42.613Z,245
2017-05-19T11:04:44.470Z,245
2017-05-19T11:05:46.317Z,245
2017-05-19T11:06:48.174Z,245
2017-05-19T11:07:50.006Z,245
2017-05-19T11:08:51.864Z,245
2017-05-19T11:09:53.721Z,245
2017-05-19T11:10:55.549Z,245
2017-05-19T11:11:57.401Z,245
2017-05-19T11:12:59.232Z,245
2017-05-19T11:14:01.094Z,245
2017-05-19T11:15:02.947Z,245
2017-05-19T11:16:04.801Z,245
2017-05-19T11:17:06.679Z,245
2017-05-19T11:18:08.533Z,250
2017-05-19T11:19:10.387Z,250
2017-05-19T11:20:12.215Z,250
2017-05-19T11:21:14.043Z,250
2017-05-19T11:22:15.950Z,250
2017-05-19T11:23:17.777Z,245
2017-05-19T11:24:19.612Z,245
2017-05-19T11:25:21.464Z,245
2017-05-19T11:26:23.325Z,250
2017-05-19T11:27:25.450Z,245
2017-05-19T11:28:27.316Z,245
2017-05-19T11:29:29.168Z,245
2017-05-19T11:30:31.024Z,245
2017-05-19T11:31:32.888Z,245
2017-05-19T11:32:34.740Z,245
2017-05-19T11:33:36.600Z,250
2017-05-19T11:34:38.455Z,250
2017-05-19T11:35:40.322Z,250
2017-05-19T11:36:42.171Z,250
2017-05-19T11:37:44.030Z,250
2017-05-19T11:38:45.889Z,255
2017-05-19T11:39:47.744Z,255
2017-05-19T11:40:49.602Z,250
2017-05-19T11:41:51.456Z,250
2017-05-19T11:42:53.315Z,255
2017-05-19T11:43:55.170Z,255
2017-05-19T11:44:57.028Z,255
2017-05-19T11:45:58.884Z,255
2017-05-19T11:47:00.741Z,255
2017-05-19T11:48:02.670Z,255
2017-05-19T11:49:04.520Z,255
2017-05-19T11:50:06.382Z,255
2017-05-19T11:51:08.233Z,255
2017-05-19T11:52:10.088Z,255
2017-05-19T11:53:12.118Z,255
2017-05-19T11:54:13.978Z,255
2017-05-19T11:55:15.833Z,255
2017-05-19T11:56:17.693Z,255
2017-05-19T11:57:19.546Z,255
2017-05-19T11:58:21.399Z,250
2017-05-19T11:59:23.235Z,250
2017-05-19T12:00:25.096Z,250
2017-05-19T12:01:26.955Z,250
2017-05-19T12:02:28.808Z,255
2017-05-19T12:03:30.814Z,255
2017-05-19T12:04:32.670Z,255
2017-05-19T12:05:34.527Z,255
2017-05-19T12:06:36.384Z,255
2017-05-19T12:07:38.214Z,255
2017-05-19T12:08:40.170Z,255
2017-05-19T12:09:42.028Z,255
2017-05-19T12:10:43.886Z,255
2017-05-19T12:11:45.745Z,255
2017-05-19T12:12:47.597Z,255
2017-05-19T12:13:49.458Z,255
2017-05-19T12:14:51.320Z,255
2017-05-19T12:15:53.172Z,260
2017-05-19T12:16:55.010Z,255
2017-05-19T12:17:56.865Z,255
2017-05-19T12:18:58.974Z,260
2017-05-19T12:20:00.797Z,260
2017-05-19T12:21:02.630Z,260
2017-05-19T12:22:04.491Z,260
2017-05-19T12:23:06.343Z,260
2017-05-19T12:24:08.225Z,260
2017-05-19T12:25:10.087Z,260
2017-05-19T12:26:11.914Z,260
2017-05-19T12:27:13.770Z,260
2017-05-19T12:28:15.598Z,260
2017-05-19T12:29:17.483Z,260
2017-05-19T12:30:19.310Z,260
2017-05-19T12:31:21.164Z,260
2017-05-19T12:32:23.000Z,260
2017-05-19T12:33:24.855Z,270
2017-05-19T12:34:26.787Z,265
2017-05-19T12:35:28.636Z,265
2017-05-19T12:36:30.475Z,265
2017-05-19T12:37:32.333Z,265
2017-05-19T12:38:34.184Z,265
2017-05-19T12:39:36.049Z,265
2017-05-19T12:40:37.906Z,265
2017-05-19T12:41:39.760Z,265
2017-05-19T12:42:41.609Z,265
2017-05-19T12:43:43.496Z,265
2017-05-19T12:44:45.598Z,265
2017-05-19T12:45:47.459Z,265
2017-05-19T12:46:49.318Z,265
2017-05-19T12:47:51.170Z,265
2017-05-19T12:48:53.005Z,265
2017-05-19T12:49:55.068Z,265
2017-05-19T12:50:56.919Z,270
2017-05-19T12:51:58.746Z,270
2017-05-19T12:53:00.604Z,265
2017-05-19T12:54:02.462Z,270
2017-05-19T12:55:04.320Z,265
2017-05-19T12:56:06.177Z,265
2017-05-19T12:57:08.030Z,265
2017-05-19T12:58:09.891Z,265
2017-05-19T12:59:11.741Z,265
2017-05-19T13:00:13.602Z,265
2017-05-19T13:01:15.463Z,265
2017-05-19T13:02:17.318Z,265
2017-05-19T13:03:19.177Z,275
2017-05-19T13:04:21.030Z,275
2017-05-19T13:05:22.969Z,270
2017-05-19T13:06:24.790Z,270
2017-05-19T13:07:26.623Z,270
2017-05-19T13:08:28.471Z,270
2017-05-19T13:09:30.304Z,270
2017-05-19T13:10:32.184Z,270
2017-05-19T13:11:34.043Z,270
2017-05-19T13:12:35.895Z,270
2017-05-19T13:13:37.721Z,270
2017-05-19T13:14:39.551Z,270
2017-05-19T13:15:41.408Z,270
2017-05-19T13:16:43.272Z,270
2017-05-19T13:17:45.123Z,270
2017-05-19T13:18:46.985Z,270
2017-05-19T13:19:48.845Z,270
2017-05-19T13:20:50.751Z,270
2017-05-19T13:21:52.603Z,270
2017-05-19T13:22:54.429Z,270
2017-05-19T13:23:56.263Z,270
2017-05-19T13:24:58.122Z,270
2017-05-19T13:26:00.079Z,270
2017-05-19T13:27:01.908Z,270
2017-05-19T13:28:03.764Z,275
2017-05-19T13:29:05.595Z,275
2017-05-19T13:30:07.451Z,275
2017-05-19T13:31:09.334Z,275
2017-05-19T13:32:11.185Z,275
2017-05-19T13:33:13.023Z,275
2017-05-19T13:34:14.884Z,275
2017-05-19T13:35:16.738Z,275
2017-05-19T13:36:18.788Z,275
2017-05-19T13:37:20.617Z,275
2017-05-19T13:38:22.446Z,275
2017-05-19T13:39:24.309Z,275
2017-05-19T13:40:26.220Z,275
2017-05-19T13:41:28.133Z,280
2017-05-19T13:42:29.992Z,280
2017-05-19T13:43:31.849Z,280
2017-05-19T13:44:33.678Z,280
2017-05-19T13:45:35.541Z,280
2017-05-19T13:46:37.398Z,280
2017-05-19T13:47:39.262Z,280
2017-05-19T13:48:41.120Z,280
2017-05-19T13:49:42.949Z,280
2017-05-19T13:50:44.804Z,280
2017-05-19T13:51:46.762Z,280
2017-05-19T13:52:48.621Z,285
2017-05-19T13:53:50.475Z,285
2017-05-19T13:54:52.331Z,285
2017-05-19T13:55:54.189Z,285
2017-05-19T13:56:56.044Z,285
2017-05-19T13:57:57.868Z,285
2017-05-19T13:58:59.704Z,285
2017-05-19T14:00:01.562Z,285
2017-05-19T14:01:03.419Z,290
2017-05-19T14:02:05.428Z,285
2017-05-19T14:03:07.287Z,285
2017-05-19T14:04:09.255Z,285
2017-05-19T14:05:11.290Z,285
2017-05-19T14:06:13.223Z,290
2017-05-19T14:07:15.671Z,290
2017-05-19T14:08:17.491Z,290
2017-05-19T14:09:19.350Z,290
2017-05-19T14:10:21.207Z,290
2017-05-19T14:11:23.036Z,290
2017-05-19T14:12:24.922Z,290
2017-05-19T14:13:26.782Z,290
2017-05-19T14:14:28.647Z,290
2017-05-19T14:15:30.504Z,290
2017-05-19T14:16:32.362Z,290
2017-05-19T14:17:34.475Z,290
2017-05-19T14:18:36.329Z,290
2017-05-19T14:19:38.182Z,290
2017-05-19T14:20:40.044Z,290
2017-05-19T14:21:41.899Z,290
2017-05-19T14:22:43.726Z,290
2017-05-19T14:23:45.588Z,290
2017-05-19T14:24:47.420Z,290